Sheridan, Colorado
Current Conditions -  °F | °C
As of 11:53 AM on Sunday 21 Dec 2014 (Local Time) from KAPA Reporting Station
Broken Clouds Broken Clouds  
Wind Chill: 41°   Ceiling: 14000
Heat Index: 45°   Visibility: 10mi
Dew Point: 20°   Wind: 7mph
Humidity: 37%   Direction: 240°WSW
Pressure: 29.61"   Gusts: NA
Location:  39.6467°N, 105.009°W
Report Text: KAPA 211853Z 24006KT 10SM FEW050 BKN140 BKN220 07/M07 A2961 RMK AO2 SLP031 SHSN OMTNS DSNT NW T00721067
Loading
Personal Weather Stations






























Interactive Weather Map New forecast layout! Learn more

10-Day Weather Forecast

Advertisements
Track Severe Weather on mobile